createdAt,value
2022-08-24T00:00:08.105Z,99.90
2022-08-24T00:02:34.964Z,99.90
2022-08-24T00:05:01.833Z,99.90
2022-08-24T00:07:28.720Z,99.90
2022-08-24T00:09:55.607Z,99.90
2022-08-24T00:12:22.408Z,99.90
2022-08-24T00:14:49.398Z,99.90
2022-08-24T00:17:16.892Z,99.90
2022-08-24T00:19:43.780Z,99.90
2022-08-24T00:22:10.709Z,99.90
2022-08-24T00:24:37.626Z,99.90
2022-08-24T00:27:06.454Z,99.90
2022-08-24T00:29:33.827Z,99.90
2022-08-24T00:32:00.522Z,99.90
2022-08-24T00:34:27.790Z,99.90
2022-08-24T00:36:54.619Z,99.90
2022-08-24T00:39:21.421Z,99.90
2022-08-24T00:41:50.015Z,99.90
2022-08-24T00:44:18.335Z,99.90
2022-08-24T00:46:48.117Z,99.90
2022-08-24T00:49:37.456Z,99.90
2022-08-24T00:52:19.450Z,99.90
2022-08-24T00:54:51.055Z,99.90
2022-08-24T00:57:22.512Z,99.90
2022-08-24T00:59:55.427Z,99.90
2022-08-24T01:02:26.333Z,99.90
2022-08-24T01:04:57.157Z,99.90
2022-08-24T01:07:26.622Z,99.90
2022-08-24T01:09:55.633Z,99.90
2022-08-24T01:12:24.473Z,99.90
2022-08-24T01:14:51.308Z,99.90
2022-08-24T01:17:39.121Z,99.90
2022-08-24T01:20:09.279Z,99.90
2022-08-24T01:22:58.879Z,99.90
2022-08-24T01:25:27.846Z,99.90
2022-08-24T01:27:57.171Z,99.90
2022-08-24T01:30:30.488Z,99.90
2022-08-24T01:33:05.958Z,99.90
2022-08-24T01:35:34.047Z,99.90
2022-08-24T01:38:04.350Z,99.90
2022-08-24T01:40:35.932Z,99.90
2022-08-24T01:43:04.972Z,99.90
2022-08-24T01:45:31.778Z,99.90
2022-08-24T01:47:59.474Z,99.90
2022-08-24T01:50:26.588Z,99.90
2022-08-24T01:53:08.854Z,99.90
2022-08-24T01:55:36.741Z,99.90
2022-08-24T01:58:04.876Z,99.90
2022-08-24T02:00:31.753Z,99.90
2022-08-24T02:02:58.535Z,99.90
2022-08-24T02:05:25.469Z,99.90
2022-08-24T02:07:52.519Z,99.90
2022-08-24T02:10:19.412Z,99.90
2022-08-24T02:12:57.631Z,99.90
2022-08-24T02:15:33.227Z,99.90
2022-08-24T02:18:00.977Z,99.90
2022-08-24T02:20:28.424Z,99.90
2022-08-24T02:22:55.351Z,99.90
2022-08-24T02:25:22.607Z,99.90
2022-08-24T02:27:49.584Z,99.90
2022-08-24T02:30:17.699Z,99.90
2022-08-24T02:32:44.330Z,99.90
2022-08-24T02:35:11.337Z,99.90
2022-08-24T02:37:43.207Z,99.90
2022-08-24T02:40:12.574Z,99.90
2022-08-24T02:42:39.484Z,99.90
2022-08-24T02:45:07.100Z,99.90
2022-08-24T02:47:38.278Z,99.90
2022-08-24T02:50:07.877Z,99.90
2022-08-24T02:52:36.178Z,99.90
2022-08-24T02:55:03.069Z,99.90
2022-08-24T02:57:29.857Z,99.90
2022-08-24T02:59:56.538Z,99.90
2022-08-24T03:02:23.254Z,99.90
2022-08-24T03:04:49.969Z,99.90
2022-08-24T03:07:16.675Z,99.90
2022-08-24T03:09:43.337Z,99.90
2022-08-24T03:12:10.166Z,99.90
2022-08-24T03:14:36.847Z,99.90
2022-08-24T03:17:04.423Z,99.90
2022-08-24T03:19:31.170Z,99.90
2022-08-24T03:21:57.945Z,99.90
2022-08-24T03:24:24.690Z,99.90
2022-08-24T03:26:51.369Z,99.90
2022-08-24T03:29:18.569Z,99.90
2022-08-24T03:31:47.300Z,99.90
2022-08-24T03:34:14.617Z,99.90
2022-08-24T03:36:46.755Z,99.90
2022-08-24T03:39:15.473Z,99.90
2022-08-24T03:41:42.498Z,99.90
2022-08-24T03:44:09.176Z,99.90
2022-08-24T03:46:38.126Z,99.90
2022-08-24T03:49:08.631Z,99.90
2022-08-24T03:51:36.697Z,99.90
2022-08-24T03:54:05.409Z,99.90
2022-08-24T03:56:32.621Z,99.90
2022-08-24T03:58:59.414Z,99.90
2022-08-24T04:01:26.499Z,99.90
2022-08-24T04:03:54.002Z,99.90
2022-08-24T04:06:22.610Z,99.90
2022-08-24T04:08:50.023Z,99.90
2022-08-24T04:11:25.822Z,99.90
2022-08-24T04:13:56.496Z,99.90
2022-08-24T04:16:24.780Z,99.90
2022-08-24T04:18:51.949Z,99.90
2022-08-24T04:21:25.043Z,99.90
2022-08-24T04:23:52.276Z,99.90
2022-08-24T04:26:32.430Z,99.90
2022-08-24T04:29:10.093Z,99.90
2022-08-24T04:31:41.054Z,99.90
2022-08-24T04:34:08.717Z,99.90
2022-08-24T04:36:35.688Z,99.90
2022-08-24T04:39:03.138Z,99.90
2022-08-24T04:41:31.591Z,99.90
2022-08-24T04:43:59.434Z,99.90
2022-08-24T04:46:26.669Z,99.90
2022-08-24T04:48:53.455Z,99.90
2022-08-24T04:51:21.097Z,99.90
2022-08-24T04:53:48.972Z,99.90
2022-08-24T04:56:20.134Z,99.90
2022-08-24T04:58:47.366Z,99.90
2022-08-24T05:01:17.937Z,99.90
2022-08-24T05:03:47.697Z,99.90
2022-08-24T05:06:15.454Z,99.90
2022-08-24T05:08:43.323Z,99.90
2022-08-24T05:11:10.417Z,99.90
2022-08-24T05:13:37.663Z,99.90
2022-08-24T05:16:13.720Z,99.90
2022-08-24T05:18:41.459Z,99.90
2022-08-24T05:21:14.418Z,99.90
2022-08-24T05:23:43.362Z,99.90
2022-08-24T05:28:43.545Z,99.90
2022-08-24T05:31:17.544Z,99.90
2022-08-24T05:33:45.371Z,99.90
2022-08-24T05:36:27.513Z,99.90
2022-08-24T05:38:57.102Z,99.90
2022-08-24T05:41:24.516Z,99.90
2022-08-24T05:43:51.510Z,99.90
2022-08-24T05:46:18.435Z,99.90
2022-08-24T05:48:53.057Z,99.90
2022-08-24T05:51:21.456Z,99.90
2022-08-24T05:53:48.381Z,99.90
2022-08-24T05:56:18.081Z,99.90
2022-08-24T05:58:45.659Z,99.90
2022-08-24T06:01:18.498Z,99.90
2022-08-24T06:03:45.848Z,99.90
2022-08-24T06:06:13.784Z,99.90
2022-08-24T06:08:44.293Z,99.90
2022-08-24T06:11:11.153Z,99.90
2022-08-24T06:13:38.747Z,99.90
2022-08-24T06:16:21.381Z,99.90
2022-08-24T06:18:49.827Z,99.90
2022-08-24T06:21:28.358Z,99.90
2022-08-24T06:23:55.946Z,99.90
2022-08-24T06:26:41.306Z,99.90
2022-08-24T06:46:33.004Z,99.90
2022-08-24T06:49:00.092Z,99.90
2022-08-24T06:56:23.059Z,99.90
2022-08-24T13:55:13.476Z,99.90
2022-08-24T13:58:15.559Z,99.90
2022-08-24T14:38:20.083Z,99.90
2022-08-24T14:40:52.736Z,99.90
2022-08-24T14:43:55.214Z,99.90
2022-08-24T15:02:31.548Z,99.90
2022-08-24T15:05:10.026Z,99.90
2022-08-24T15:07:37.418Z,99.90
2022-08-24T15:10:14.685Z,99.90
2022-08-24T15:30:34.896Z,99.90
2022-08-24T15:33:06.334Z,99.90
2022-08-24T15:35:45.140Z,99.90
2022-08-24T15:38:21.200Z,99.90
2022-08-24T15:41:09.640Z,99.90
2022-08-24T15:43:44.252Z,99.90
2022-08-24T15:46:12.667Z,99.90
2022-08-24T15:48:42.847Z,99.90
2022-08-24T15:51:16.531Z,99.90
2022-08-24T15:53:43.883Z,99.90
2022-08-24T15:59:11.385Z,99.90
2022-08-24T16:02:14.643Z,99.90
2022-08-24T16:58:12.321Z,99.90
2022-08-24T17:00:39.025Z,91.90
2022-08-24T17:03:05.925Z,93.50
2022-08-24T17:05:33.019Z,94.90
2022-08-24T17:08:00.761Z,95.60
2022-08-24T17:10:27.850Z,96.10
2022-08-24T17:12:54.640Z,97.30
2022-08-24T17:15:21.816Z,97.60
2022-08-24T17:17:56.278Z,96.80
2022-08-24T17:20:23.141Z,97.50
2022-08-24T17:22:49.844Z,97.80
2022-08-24T17:25:16.596Z,99.30
2022-08-24T17:27:44.300Z,99.60
2022-08-24T17:30:11.601Z,99.90
2022-08-24T17:32:38.309Z,99.90
2022-08-24T17:35:05.571Z,99.90
2022-08-24T17:37:32.764Z,99.90
2022-08-24T17:40:00.766Z,99.90
2022-08-24T17:42:49.641Z,99.90
2022-08-24T17:45:14.946Z,99.90
2022-08-24T17:47:43.338Z,99.90
2022-08-24T17:50:13.875Z,99.90
2022-08-24T17:52:41.351Z,99.90
2022-08-24T17:55:10.484Z,99.90
2022-08-24T17:57:37.896Z,99.90
2022-08-24T18:00:10.570Z,99.90
2022-08-24T18:02:37.598Z,99.90
2022-08-24T18:05:04.665Z,99.90
2022-08-24T18:07:51.965Z,99.90
2022-08-24T18:10:23.804Z,99.90
2022-08-24T18:12:50.714Z,99.90
2022-08-24T18:15:17.655Z,99.90
2022-08-24T18:17:51.196Z,99.90
2022-08-24T18:20:25.422Z,99.90
2022-08-24T18:22:53.808Z,99.90
2022-08-24T18:25:23.133Z,99.90
2022-08-24T18:27:53.228Z,99.90
2022-08-24T18:30:30.998Z,99.90
2022-08-24T18:32:59.885Z,99.90
2022-08-24T18:35:26.658Z,99.90
2022-08-24T18:37:53.412Z,99.90
2022-08-24T18:40:21.469Z,99.90
2022-08-24T18:42:50.562Z,99.90
2022-08-24T18:45:18.012Z,99.90
2022-08-24T18:47:44.790Z,99.90
2022-08-24T18:50:19.852Z,99.90
2022-08-24T18:52:46.629Z,99.90
2022-08-24T18:55:14.407Z,99.90
2022-08-24T18:57:41.088Z,99.90
2022-08-24T19:00:09.790Z,99.90
2022-08-24T19:02:36.989Z,99.90
2022-08-24T19:05:14.710Z,99.90
2022-08-24T19:07:46.953Z,99.90
2022-08-24T19:10:17.344Z,99.90
2022-08-24T19:12:54.280Z,99.90
2022-08-24T19:15:32.603Z,99.90
2022-08-24T19:18:11.056Z,99.90
2022-08-24T19:20:48.000Z,99.90
2022-08-24T19:23:21.272Z,99.90
2022-08-24T19:25:48.608Z,99.90
2022-08-24T19:28:15.655Z,99.90
2022-08-24T19:30:43.058Z,99.90
2022-08-24T19:33:14.238Z,99.90
2022-08-24T19:35:41.526Z,99.90
2022-08-24T19:38:08.293Z,99.90
2022-08-24T19:40:34.993Z,99.90
2022-08-24T19:43:02.916Z,99.90
2022-08-24T19:45:49.288Z,99.90
2022-08-24T19:48:16.325Z,99.90
2022-08-24T19:50:43.035Z,99.90
2022-08-24T19:53:10.342Z,99.90
2022-08-24T19:55:37.349Z,99.90
2022-08-24T19:58:18.338Z,99.90
2022-08-24T20:00:51.808Z,99.90
2022-08-24T20:03:18.733Z,99.90
2022-08-24T20:05:45.734Z,99.90
2022-08-24T20:08:12.560Z,99.90
2022-08-24T20:10:39.618Z,99.90
2022-08-24T20:13:06.916Z,99.90
2022-08-24T20:15:34.050Z,99.90
2022-08-24T20:18:00.966Z,99.90
2022-08-24T20:20:30.083Z,99.90
2022-08-24T20:22:57.416Z,99.90
2022-08-24T20:25:24.141Z,99.90
2022-08-24T20:28:12.227Z,99.90
2022-08-24T20:30:38.046Z,99.90
2022-08-24T20:33:06.237Z,99.90
2022-08-24T20:35:32.990Z,99.90
2022-08-24T20:37:59.681Z,99.90
2022-08-24T20:40:27.067Z,99.90
2022-08-24T20:42:53.997Z,99.90
2022-08-24T20:45:20.911Z,99.90
2022-08-24T20:47:51.146Z,99.90
2022-08-24T20:50:23.474Z,99.90
2022-08-24T20:52:51.817Z,99.90
2022-08-24T20:55:18.999Z,99.90
2022-08-24T20:57:50.662Z,99.90
2022-08-24T21:00:19.795Z,99.90
2022-08-24T21:02:46.957Z,99.90
2022-08-24T21:05:14.117Z,99.90
2022-08-24T21:07:47.627Z,99.90
2022-08-24T21:10:14.371Z,99.90
2022-08-24T21:12:41.139Z,99.90
2022-08-24T21:15:13.359Z,99.90
2022-08-24T21:17:41.377Z,99.90
2022-08-24T21:20:08.891Z,99.90
2022-08-24T21:22:38.504Z,99.90
2022-08-24T21:25:06.550Z,99.90
2022-08-24T21:27:39.153Z,99.90
2022-08-24T21:30:08.480Z,99.90
2022-08-24T21:32:53.880Z,99.90
2022-08-24T21:35:21.292Z,99.90
2022-08-24T21:37:47.974Z,99.90
2022-08-24T21:40:16.250Z,99.90
2022-08-24T21:42:42.997Z,99.90
2022-08-24T21:45:10.229Z,99.90
2022-08-24T21:47:37.267Z,99.90
2022-08-24T21:50:04.948Z,99.90
2022-08-24T21:52:31.715Z,99.90
2022-08-24T21:54:59.395Z,99.90
2022-08-24T21:57:27.611Z,99.90
2022-08-24T21:59:54.310Z,99.90
2022-08-24T22:02:21.007Z,99.90
2022-08-24T22:04:56.035Z,99.90
2022-08-24T22:07:24.643Z,99.90
2022-08-24T22:09:51.634Z,99.90
2022-08-24T22:12:18.696Z,99.90
2022-08-24T22:14:45.319Z,99.90
2022-08-24T22:17:12.045Z,99.90
2022-08-24T22:19:39.155Z,99.90
2022-08-24T22:22:05.813Z,99.90
2022-08-24T22:24:32.900Z,99.90
2022-08-24T22:26:59.791Z,99.90
2022-08-24T22:29:26.572Z,99.90
2022-08-24T22:31:53.307Z,99.90
2022-08-24T22:34:21.010Z,99.90
2022-08-24T22:36:48.757Z,99.90
2022-08-24T22:39:16.474Z,99.90
2022-08-24T22:41:43.936Z,99.90
2022-08-24T22:44:19.966Z,99.90
2022-08-24T22:46:59.073Z,99.90
2022-08-24T22:49:29.407Z,99.90
2022-08-24T22:51:56.725Z,99.90
2022-08-24T22:54:25.423Z,99.90
2022-08-24T22:56:54.774Z,99.90
2022-08-24T22:59:25.207Z,99.90
2022-08-24T23:01:53.839Z,99.90
2022-08-24T23:04:27.648Z,99.90
2022-08-24T23:06:54.968Z,99.90
2022-08-24T23:09:23.233Z,99.90
2022-08-24T23:11:52.185Z,99.90
2022-08-24T23:14:20.111Z,99.90
2022-08-24T23:16:48.543Z,99.90
2022-08-24T23:19:39.570Z,99.90
2022-08-24T23:22:09.219Z,99.90
2022-08-24T23:24:36.615Z,99.90
2022-08-24T23:27:04.890Z,99.90
2022-08-24T23:29:32.238Z,99.90
2022-08-24T23:31:59.347Z,99.90
2022-08-24T23:34:26.448Z,99.90
2022-08-24T23:36:53.096Z,99.90
2022-08-24T23:39:21.142Z,99.90
2022-08-24T23:41:49.288Z,99.90
2022-08-24T23:44:19.450Z,99.90
2022-08-24T23:46:46.577Z,99.90
2022-08-24T23:49:14.557Z,99.90
2022-08-24T23:51:41.693Z,99.90
2022-08-24T23:54:09.960Z,99.90
2022-08-24T23:56:40.575Z,99.90
2022-08-24T23:59:13.905Z,99.90
